sensor_id;sensor_type;location;lat;lon;timestamp;pressure;altitude;pressure_sealevel;temperature;humidity
65880;BME280;52661;51.364;6.054;2023-04-27T00:01:28;101638.03;;;6.94;100.00
65880;BME280;52661;51.364;6.054;2023-04-27T00:03:53;101628.88;;;6.71;100.00
65880;BME280;52661;51.364;6.054;2023-04-27T00:06:19;101639.88;;;6.78;100.00
65880;BME280;52661;51.364;6.054;2023-04-27T00:08:44;101640.22;;;6.77;100.00
65880;BME280;52661;51.364;6.054;2023-04-27T00:11:09;101637.06;;;6.87;100.00
65880;BME280;52661;51.364;6.054;2023-04-27T00:13:35;101640.00;;;6.82;100.00
65880;BME280;52661;51.364;6.054;2023-04-27T00:16:00;101638.75;;;6.79;100.00
65880;BME280;52661;51.364;6.054;2023-04-27T00:18:28;101651.69;;;6.86;100.00
65880;BME280;52661;51.364;6.054;2023-04-27T00:20:54;101645.81;;;6.84;100.00
65880;BME280;52661;51.364;6.054;2023-04-27T00:23:19;101646.41;;;6.77;100.00
65880;BME280;52661;51.364;6.054;2023-04-27T00:25:45;101638.50;;;6.84;100.00
65880;BME280;52661;51.364;6.054;2023-04-27T00:28:10;101633.47;;;6.59;100.00
65880;BME280;52661;51.364;6.054;2023-04-27T00:30:35;101627.97;;;6.55;100.00
65880;BME280;52661;51.364;6.054;2023-04-27T00:33:01;101626.22;;;6.47;100.00
65880;BME280;52661;51.364;6.054;2023-04-27T00:35:26;101631.47;;;6.56;100.00
65880;BME280;52661;51.364;6.054;2023-04-27T00:37:54;101631.16;;;6.57;100.00
65880;BME280;52661;51.364;6.054;2023-04-27T00:40:20;101636.97;;;6.59;100.00
65880;BME280;52661;51.364;6.054;2023-04-27T00:42:45;101635.84;;;6.60;100.00
65880;BME280;52661;51.364;6.054;2023-04-27T00:45:11;101634.53;;;6.42;100.00
65880;BME280;52661;51.364;6.054;2023-04-27T00:47:37;101623.03;;;6.09;100.00
65880;BME280;52661;51.364;6.054;2023-04-27T00:50:03;101629.69;;;6.11;100.00
65880;BME280;52661;51.364;6.054;2023-04-27T00:52:32;101633.25;;;6.15;100.00
65880;BME280;52661;51.364;6.054;2023-04-27T00:54:58;101624.63;;;6.10;100.00
65880;BME280;52661;51.364;6.054;2023-04-27T00:57:24;101633.16;;;6.12;100.00
65880;BME280;52661;51.364;6.054;2023-04-27T00:59:49;101627.75;;;6.12;100.00
65880;BME280;52661;51.364;6.054;2023-04-27T01:02:14;101638.13;;;6.22;100.00
65880;BME280;52661;51.364;6.054;2023-04-27T01:04:40;101635.50;;;6.13;100.00
65880;BME280;52661;51.364;6.054;2023-04-27T01:07:06;101637.66;;;6.08;100.00
65880;BME280;52661;51.364;6.054;2023-04-27T01:09:31;101641.78;;;6.05;100.00
65880;BME280;52661;51.364;6.054;2023-04-27T01:11:56;101633.28;;;6.03;100.00
65880;BME280;52661;51.364;6.054;2023-04-27T01:14:23;101629.88;;;5.94;100.00
65880;BME280;52661;51.364;6.054;2023-04-27T01:16:48;101631.63;;;5.78;100.00
65880;BME280;52661;51.364;6.054;2023-04-27T01:19:13;101628.44;;;5.76;100.00
65880;BME280;52661;51.364;6.054;2023-04-27T01:21:39;101635.53;;;5.80;100.00
65880;BME280;52661;51.364;6.054;2023-04-27T01:24:05;101632.66;;;5.85;100.00
65880;BME280;52661;51.364;6.054;2023-04-27T01:26:31;101641.22;;;6.00;100.00
65880;BME280;52661;51.364;6.054;2023-04-27T01:28:56;101642.50;;;6.14;100.00
65880;BME280;52661;51.364;6.054;2023-04-27T01:31:22;101632.63;;;6.18;100.00
65880;BME280;52661;51.364;6.054;2023-04-27T01:33:48;101638.41;;;5.96;100.00
65880;BME280;52661;51.364;6.054;2023-04-27T01:36:13;101642.13;;;6.16;100.00
65880;BME280;52661;51.364;6.054;2023-04-27T01:38:38;101640.56;;;6.03;100.00
65880;BME280;52661;51.364;6.054;2023-04-27T01:41:05;101636.44;;;5.84;100.00
65880;BME280;52661;51.364;6.054;2023-04-27T01:43:32;101646.75;;;6.03;100.00
65880;BME280;52661;51.364;6.054;2023-04-27T01:46:07;101645.16;;;6.02;100.00
65880;BME280;52661;51.364;6.054;2023-04-27T01:48:34;101644.03;;;6.03;100.00
65880;BME280;52661;51.364;6.054;2023-04-27T01:51:00;101637.13;;;5.81;100.00
65880;BME280;52661;51.364;6.054;2023-04-27T01:53:25;101633.28;;;5.70;100.00
65880;BME280;52661;51.364;6.054;2023-04-27T01:55:50;101637.31;;;5.64;100.00
65880;BME280;52661;51.364;6.054;2023-04-27T01:58:16;101626.13;;;5.41;100.00
65880;BME280;52661;51.364;6.054;2023-04-27T02:00:41;101634.84;;;5.38;100.00
65880;BME280;52661;51.364;6.054;2023-04-27T02:03:06;101623.25;;;5.26;100.00
65880;BME280;52661;51.364;6.054;2023-04-27T02:05:31;101632.56;;;5.28;100.00
65880;BME280;52661;51.364;6.054;2023-04-27T02:07:57;101640.38;;;5.21;100.00
65880;BME280;52661;51.364;6.054;2023-04-27T02:10:22;101638.81;;;5.20;100.00
65880;BME280;52661;51.364;6.054;2023-04-27T02:12:47;101637.50;;;5.26;100.00
65880;BME280;52661;51.364;6.054;2023-04-27T02:15:13;101629.66;;;5.33;100.00
65880;BME280;52661;51.364;6.054;2023-04-27T02:17:38;101639.75;;;5.24;100.00
65880;BME280;52661;51.364;6.054;2023-04-27T02:20:05;101643.00;;;5.30;100.00
65880;BME280;52661;51.364;6.054;2023-04-27T02:22:34;101636.38;;;5.27;100.00
65880;BME280;52661;51.364;6.054;2023-04-27T02:24:59;101635.50;;;5.35;100.00
65880;BME280;52661;51.364;6.054;2023-04-27T02:27:24;101634.81;;;5.26;100.00
65880;BME280;52661;51.364;6.054;2023-04-27T02:29:50;101629.66;;;5.33;100.00
65880;BME280;52661;51.364;6.054;2023-04-27T02:32:16;101623.13;;;5.22;100.00
65880;BME280;52661;51.364;6.054;2023-04-27T02:34:41;101618.25;;;5.16;100.00
65880;BME280;52661;51.364;6.054;2023-04-27T02:37:06;101623.25;;;5.26;100.00
65880;BME280;52661;51.364;6.054;2023-04-27T02:39:32;101620.16;;;5.15;100.00
65880;BME280;52661;51.364;6.054;2023-04-27T02:41:57;101617.78;;;5.14;100.00
65880;BME280;52661;51.364;6.054;2023-04-27T02:44:22;101611.41;;;5.06;100.00
65880;BME280;52661;51.364;6.054;2023-04-27T02:46:48;101607.56;;;5.07;100.00
65880;BME280;52661;51.364;6.054;2023-04-27T02:49:15;101598.44;;;5.00;100.00
65880;BME280;52661;51.364;6.054;2023-04-27T02:51:40;101602.63;;;4.88;100.00
65880;BME280;52661;51.364;6.054;2023-04-27T02:54:05;101602.63;;;4.88;100.00
65880;BME280;52661;51.364;6.054;2023-04-27T02:56:31;101601.13;;;4.79;100.00
65880;BME280;52661;51.364;6.054;2023-04-27T02:58:56;101609.56;;;4.98;100.00
65880;BME280;52661;51.364;6.054;2023-04-27T03:01:21;101602.53;;;5.06;100.00
65880;BME280;52661;51.364;6.054;2023-04-27T03:03:46;101602.59;;;4.97;100.00
65880;BME280;52661;51.364;6.054;2023-04-27T03:06:12;101613.22;;;4.93;100.00
65880;BME280;52661;51.364;6.054;2023-04-27T03:08:38;101618.59;;;4.93;100.00
65880;BME280;52661;51.364;6.054;2023-04-27T03:11:03;101614.59;;;5.00;100.00
65880;BME280;52661;51.364;6.054;2023-04-27T03:13:29;101616.88;;;4.89;100.00
65880;BME280;52661;51.364;6.054;2023-04-27T03:15:54;101619.72;;;4.92;100.00
65880;BME280;52661;51.364;6.054;2023-04-27T03:18:19;101613.53;;;4.92;100.00
65880;BME280;52661;51.364;6.054;2023-04-27T03:20:45;101612.78;;;4.91;100.00
65880;BME280;52661;51.364;6.054;2023-04-27T03:23:10;101617.09;;;4.84;100.00
65880;BME280;52661;51.364;6.054;2023-04-27T03:25:36;101613.09;;;4.90;100.00
65880;BME280;52661;51.364;6.054;2023-04-27T03:28:01;101615.59;;;4.95;100.00
65880;BME280;52661;51.364;6.054;2023-04-27T03:30:26;101612.41;;;5.14;100.00
65880;BME280;52661;51.364;6.054;2023-04-27T03:32:52;101612.63;;;5.09;100.00
65880;BME280;52661;51.364;6.054;2023-04-27T03:35:17;101608.63;;;4.94;100.00
65880;BME280;52661;51.364;6.054;2023-04-27T03:37:43;101615.59;;;4.95;100.00
65880;BME280;52661;51.364;6.054;2023-04-27T03:40:10;101613.34;;;4.97;100.00
65880;BME280;52661;51.364;6.054;2023-04-27T03:42:37;101622.84;;;5.15;100.00
65880;BME280;52661;51.364;6.054;2023-04-27T03:45:02;101619.34;;;5.03;100.00
65880;BME280;52661;51.364;6.054;2023-04-27T03:47:29;101621.22;;;5.02;100.00
65880;BME280;52661;51.364;6.054;2023-04-27T03:49:54;101625.34;;;5.00;100.00
65880;BME280;52661;51.364;6.054;2023-04-27T03:52:20;101632.78;;;5.03;100.00
65880;BME280;52661;51.364;6.054;2023-04-27T03:54:46;101634.44;;;4.95;100.00
65880;BME280;52661;51.364;6.054;2023-04-27T03:57:11;101630.28;;;4.77;100.00
65880;BME280;52661;51.364;6.054;2023-04-27T03:59:36;101642.41;;;4.83;100.00
65880;BME280;52661;51.364;6.054;2023-04-27T04:02:02;101641.97;;;4.81;100.00
65880;BME280;52661;51.364;6.054;2023-04-27T04:04:29;101632.78;;;4.53;100.00
65880;BME280;52661;51.364;6.054;2023-04-27T04:06:55;101632.59;;;4.58;100.00
65880;BME280;52661;51.364;6.054;2023-04-27T04:09:20;101623.94;;;4.52;100.00
65880;BME280;52661;51.364;6.054;2023-04-27T04:11:45;101622.03;;;4.53;100.00
65880;BME280;52661;51.364;6.054;2023-04-27T04:14:11;101627.09;;;4.54;100.00
65880;BME280;52661;51.364;6.054;2023-04-27T04:16:36;101637.47;;;4.64;100.00
65880;BME280;52661;51.364;6.054;2023-04-27T04:19:01;101638.13;;;4.61;100.00
65880;BME280;52661;51.364;6.054;2023-04-27T04:21:27;101632.09;;;4.64;100.00
65880;BME280;52661;51.364;6.054;2023-04-27T04:23:52;101636.94;;;4.71;100.00
65880;BME280;52661;51.364;6.054;2023-04-27T04:26:17;101632.69;;;4.70;100.00
65880;BME280;52661;51.364;6.054;2023-04-27T04:28:42;101645.69;;;4.88;100.00
65880;BME280;52661;51.364;6.054;2023-04-27T04:31:08;101645.50;;;4.93;100.00
65880;BME280;52661;51.364;6.054;2023-04-27T04:33:33;101641.75;;;4.86;100.00
65880;BME280;52661;51.364;6.054;2023-04-27T04:36:02;101651.53;;;4.90;100.00
65880;BME280;52661;51.364;6.054;2023-04-27T04:38:28;101654.53;;;4.89;100.00
65880;BME280;52661;51.364;6.054;2023-04-27T04:40:53;101650.78;;;4.81;100.00
65880;BME280;52661;51.364;6.054;2023-04-27T04:43:18;101656.00;;;4.86;100.00
65880;BME280;52661;51.364;6.054;2023-04-27T04:45:43;101652.06;;;4.84;100.00
65880;BME280;52661;51.364;6.054;2023-04-27T04:48:10;101663.00;;;5.00;100.00
65880;BME280;52661;51.364;6.054;2023-04-27T04:50:35;101658.91;;;5.02;100.00
65880;BME280;52661;51.364;6.054;2023-04-27T04:53:01;101661.78;;;4.97;100.00
65880;BME280;52661;51.364;6.054;2023-04-27T04:55:26;101660.84;;;4.93;100.00
65880;BME280;52661;51.364;6.054;2023-04-27T04:57:52;101663.53;;;4.93;100.00
65880;BME280;52661;51.364;6.054;2023-04-27T05:00:17;101659.50;;;4.78;100.00
65880;BME280;52661;51.364;6.054;2023-04-27T05:02:43;101663.41;;;4.89;100.00
65880;BME280;52661;51.364;6.054;2023-04-27T05:05:08;101664.28;;;5.02;100.00
65880;BME280;52661;51.364;6.054;2023-04-27T05:07:34;101663.09;;;4.91;100.00
65880;BME280;52661;51.364;6.054;2023-04-27T05:10:00;101667.06;;;4.85;100.00
65880;BME280;52661;51.364;6.054;2023-04-27T05:12:25;101668.72;;;4.77;100.00
65880;BME280;52661;51.364;6.054;2023-04-27T05:14:51;101677.06;;;4.84;100.00
65880;BME280;52661;51.364;6.054;2023-04-27T05:17:16;101678.16;;;4.83;100.00
65880;BME280;52661;51.364;6.054;2023-04-27T05:19:42;101672.00;;;4.83;100.00
65880;BME280;52661;51.364;6.054;2023-04-27T05:22:07;101677.91;;;4.97;100.00
65880;BME280;52661;51.364;6.054;2023-04-27T05:24:32;101670.25;;;5.08;100.00
65880;BME280;52661;51.364;6.054;2023-04-27T05:26:58;101685.41;;;5.12;100.00
65880;BME280;52661;51.364;6.054;2023-04-27T05:29:23;101682.06;;;5.15;100.00
65880;BME280;52661;51.364;6.054;2023-04-27T05:31:48;101679.56;;;5.10;100.00
65880;BME280;52661;51.364;6.054;2023-04-27T05:34:14;101681.41;;;5.18;100.00
65880;BME280;52661;51.364;6.054;2023-04-27T05:36:39;101683.16;;;5.14;100.00
65880;BME280;52661;51.364;6.054;2023-04-27T05:39:05;101691.44;;;5.30;100.00
65880;BME280;52661;51.364;6.054;2023-04-27T05:41:31;101692.38;;;5.34;100.00
65880;BME280;52661;51.364;6.054;2023-04-27T05:43:56;101688.69;;;5.38;100.00
65880;BME280;52661;51.364;6.054;2023-04-27T05:46:21;101693.06;;;5.43;100.00
65880;BME280;52661;51.364;6.054;2023-04-27T05:48:47;101692.69;;;5.53;100.00
65880;BME280;52661;51.364;6.054;2023-04-27T05:51:12;101693.47;;;5.54;100.00
65880;BME280;52661;51.364;6.054;2023-04-27T05:53:37;101691.69;;;5.58;100.00
65880;BME280;52661;51.364;6.054;2023-04-27T05:56:03;101696.94;;;5.54;100.00
65880;BME280;52661;51.364;6.054;2023-04-27T05:58:30;101691.25;;;5.56;100.00
65880;BME280;52661;51.364;6.054;2023-04-27T06:00:57;101700.50;;;5.67;100.00
65880;BME280;52661;51.364;6.054;2023-04-27T06:03:22;101691.19;;;5.64;100.00
65880;BME280;52661;51.364;6.054;2023-04-27T06:05:53;101697.91;;;5.70;100.00
65880;BME280;52661;51.364;6.054;2023-04-27T06:08:18;101697.91;;;5.70;100.00
65880;BME280;52661;51.364;6.054;2023-04-27T06:10:44;101699.16;;;5.73;100.00
65880;BME280;52661;51.364;6.054;2023-04-27T06:13:09;101701.44;;;5.83;100.00
65880;BME280;52661;51.364;6.054;2023-04-27T06:15:35;101694.09;;;5.92;100.00
65880;BME280;52661;51.364;6.054;2023-04-27T06:18:00;101692.75;;;5.86;100.00
65880;BME280;52661;51.364;6.054;2023-04-27T06:20:25;101697.69;;;5.96;100.00
65880;BME280;52661;51.364;6.054;2023-04-27T06:22:51;101693.66;;;6.02;100.00
65880;BME280;52661;51.364;6.054;2023-04-27T06:25:16;101699.19;;;6.06;100.00
65880;BME280;52661;51.364;6.054;2023-04-27T06:27:41;101709.41;;;6.12;100.00
65880;BME280;52661;51.364;6.054;2023-04-27T06:30:07;101696.97;;;6.20;100.00
65880;BME280;52661;51.364;6.054;2023-04-27T06:32:32;101706.38;;;6.26;100.00
65880;BME280;52661;51.364;6.054;2023-04-27T06:34:58;101699.44;;;6.25;100.00
65880;BME280;52661;51.364;6.054;2023-04-27T06:37:23;101702.38;;;6.32;100.00
65880;BME280;52661;51.364;6.054;2023-04-27T06:39:49;101692.38;;;6.32;100.00
65880;BME280;52661;51.364;6.054;2023-04-27T06:42:14;101703.38;;;6.52;100.00
65880;BME280;52661;51.364;6.054;2023-04-27T06:44:40;101700.72;;;6.64;100.00
65880;BME280;52661;51.364;6.054;2023-04-27T06:47:05;101701.59;;;6.68;100.00
65880;BME280;52661;51.364;6.054;2023-04-27T06:49:30;101694.31;;;6.68;100.00
65880;BME280;52661;51.364;6.054;2023-04-27T06:51:56;101696.09;;;6.76;100.00
65880;BME280;52661;51.364;6.054;2023-04-27T06:54:21;101691.03;;;6.87;100.00
65880;BME280;52661;51.364;6.054;2023-04-27T06:56:46;101700.91;;;6.95;100.00
65880;BME280;52661;51.364;6.054;2023-04-27T06:59:12;101693.47;;;7.04;100.00
65880;BME280;52661;51.364;6.054;2023-04-27T07:01:37;101700.56;;;7.09;100.00
65880;BME280;52661;51.364;6.054;2023-04-27T07:04:03;101695.56;;;7.23;100.00
65880;BME280;52661;51.364;6.054;2023-04-27T07:06:29;101695.13;;;7.21;100.00
65880;BME280;52661;51.364;6.054;2023-04-27T07:08:55;101698.59;;;7.33;100.00
65880;BME280;52661;51.364;6.054;2023-04-27T07:11:20;101701.97;;;7.30;100.00
65880;BME280;52661;51.364;6.054;2023-04-27T07:13:46;101697.38;;;7.19;100.00
65880;BME280;52661;51.364;6.054;2023-04-27T07:16:11;101699.91;;;7.39;100.00
65880;BME280;52661;51.364;6.054;2023-04-27T07:18:36;101706.78;;;7.37;100.00
65880;BME280;52661;51.364;6.054;2023-04-27T07:21:02;101698.13;;;7.31;100.00
65880;BME280;52661;51.364;6.054;2023-04-27T07:23:27;101699.47;;;7.37;100.00
65880;BME280;52661;51.364;6.054;2023-04-27T07:25:52;101688.28;;;7.51;100.00
65880;BME280;52661;51.364;6.054;2023-04-27T07:28:18;101702.19;;;7.65;100.00
65880;BME280;52661;51.364;6.054;2023-04-27T07:30:43;101702.22;;;7.81;100.00
65880;BME280;52661;51.364;6.054;2023-04-27T07:33:10;101697.34;;;7.86;100.00
65880;BME280;52661;51.364;6.054;2023-04-27T07:35:35;101695.38;;;7.99;100.00
65880;BME280;52661;51.364;6.054;2023-04-27T07:38:01;101697.44;;;7.90;100.00
65880;BME280;52661;51.364;6.054;2023-04-27T07:40:27;101689.28;;;8.02;100.00
65880;BME280;52661;51.364;6.054;2023-04-27T07:42:53;101692.88;;;8.06;100.00
65880;BME280;52661;51.364;6.054;2023-04-27T07:45:19;101688.84;;;8.16;100.00
65880;BME280;52661;51.364;6.054;2023-04-27T07:47:46;101697.13;;;8.23;100.00
65880;BME280;52661;51.364;6.054;2023-04-27T07:50:11;101690.09;;;8.34;100.00
65880;BME280;52661;51.364;6.054;2023-04-27T07:52:41;101683.75;;;8.42;100.00
65880;BME280;52661;51.364;6.054;2023-04-27T07:55:07;101686.38;;;8.38;100.00
65880;BME280;52661;51.364;6.054;2023-04-27T07:57:32;101686.53;;;8.46;100.00
65880;BME280;52661;51.364;6.054;2023-04-27T07:59:58;101689.56;;;8.44;100.00
65880;BME280;52661;51.364;6.054;2023-04-27T08:02:25;101688.94;;;8.66;100.00
65880;BME280;52661;51.364;6.054;2023-04-27T08:04:54;101685.38;;;8.62;100.00
65880;BME280;52661;51.364;6.054;2023-04-27T08:07:19;101675.31;;;8.78;100.00
65880;BME280;52661;51.364;6.054;2023-04-27T08:09:45;101675.59;;;8.73;98.48
65880;BME280;52661;51.364;6.054;2023-04-27T08:12:10;101675.66;;;8.77;100.00
65880;BME280;52661;51.364;6.054;2023-04-27T08:14:35;101674.06;;;8.92;100.00
65880;BME280;52661;51.364;6.054;2023-04-27T08:17:01;101670.78;;;9.02;100.00
65880;BME280;52661;51.364;6.054;2023-04-27T08:19:26;101670.94;;;9.09;100.00
65880;BME280;52661;51.364;6.054;2023-04-27T08:21:51;101681.06;;;9.12;100.00
65880;BME280;52661;51.364;6.054;2023-04-27T08:24:17;101681.13;;;8.96;100.00
65880;BME280;52661;51.364;6.054;2023-04-27T08:26:43;101670.78;;;9.02;100.00
65880;BME280;52661;51.364;6.054;2023-04-27T08:29:08;101667.66;;;9.19;100.00
65880;BME280;52661;51.364;6.054;2023-04-27T08:31:33;101677.44;;;9.23;99.10
65880;BME280;52661;51.364;6.054;2023-04-27T08:33:59;101678.31;;;9.27;99.75
65880;BME280;52661;51.364;6.054;2023-04-27T08:36:24;101681.16;;;9.34;97.54
65880;BME280;52661;51.364;6.054;2023-04-27T08:38:50;101676.88;;;9.33;93.30
65880;BME280;52661;51.364;6.054;2023-04-27T08:41:20;101683.88;;;9.34;93.31
65880;BME280;52661;51.364;6.054;2023-04-27T08:43:46;101675.81;;;9.57;100.00
65880;BME280;52661;51.364;6.054;2023-04-27T08:46:17;101674.78;;;9.84;97.41
65880;BME280;52661;51.364;6.054;2023-04-27T08:48:42;101668.22;;;9.85;93.50
65880;BME280;52661;51.364;6.054;2023-04-27T08:51:09;101659.59;;;9.80;91.24
65880;BME280;52661;51.364;6.054;2023-04-27T08:53:35;101659.22;;;9.81;93.69
65880;BME280;52661;51.364;6.054;2023-04-27T08:56:00;101668.94;;;9.82;83.97
65880;BME280;52661;51.364;6.054;2023-04-27T08:58:38;101664.31;;;9.64;77.35
65880;BME280;52661;51.364;6.054;2023-04-27T09:01:04;101656.31;;;9.71;87.86
65880;BME280;52661;51.364;6.054;2023-04-27T09:03:31;101647.38;;;9.89;93.79
65880;BME280;52661;51.364;6.054;2023-04-27T09:05:56;101653.69;;;10.16;91.37
65880;BME280;52661;51.364;6.054;2023-04-27T09:08:22;101651.63;;;10.13;87.78
65880;BME280;52661;51.364;6.054;2023-04-27T09:10:51;101664.53;;;10.16;87.26
65880;BME280;52661;51.364;6.054;2023-04-27T09:13:17;101657.16;;;10.17;82.39
65880;BME280;52661;51.364;6.054;2023-04-27T09:15:47;101662.59;;;10.17;85.20
65880;BME280;52661;51.364;6.054;2023-04-27T09:18:20;101653.69;;;10.16;89.21
65880;BME280;52661;51.364;6.054;2023-04-27T09:20:47;101655.09;;;10.33;90.45
65880;BME280;52661;51.364;6.054;2023-04-27T09:23:29;101651.19;;;10.30;88.51
65880;BME280;52661;51.364;6.054;2023-04-27T09:25:56;101653.75;;;10.46;91.67
65880;BME280;52661;51.364;6.054;2023-04-27T09:28:24;101664.19;;;10.44;80.57
65880;BME280;52661;51.364;6.054;2023-04-27T09:31:00;101652.63;;;10.47;82.18
65880;BME280;52661;51.364;6.054;2023-04-27T09:33:28;101651.94;;;10.54;79.09
65880;BME280;52661;51.364;6.054;2023-04-27T09:35:54;101656.28;;;10.84;88.06
65880;BME280;52661;51.364;6.054;2023-04-27T09:38:21;101651.59;;;10.81;78.38
65880;BME280;52661;51.364;6.054;2023-04-27T09:40:48;101644.56;;;10.80;84.95
65880;BME280;52661;51.364;6.054;2023-04-27T09:43:14;101646.44;;;10.76;74.69
65880;BME280;52661;51.364;6.054;2023-04-27T09:45:40;101648.47;;;10.83;81.61
65880;BME280;52661;51.364;6.054;2023-04-27T09:48:06;101656.88;;;11.01;79.94
65880;BME280;52661;51.364;6.054;2023-04-27T09:50:39;101646.72;;;10.68;69.74
65880;BME280;52661;51.364;6.054;2023-04-27T09:53:17;101644.97;;;10.82;83.56
65880;BME280;52661;51.364;6.054;2023-04-27T09:55:54;101642.50;;;11.00;79.00
65880;BME280;52661;51.364;6.054;2023-04-27T10:01:55;101629.31;;;10.99;82.63
65880;BME280;52661;51.364;6.054;2023-04-27T10:04:56;101621.47;;;10.94;75.92
65880;BME280;52661;51.364;6.054;2023-04-27T10:07:31;101622.94;;;10.88;69.51
65880;BME280;52661;51.364;6.054;2023-04-27T10:10:01;101622.78;;;11.03;75.87
65880;BME280;52661;51.364;6.054;2023-04-27T10:12:32;101625.56;;;11.10;73.42
65880;BME280;52661;51.364;6.054;2023-04-27T10:14:59;101625.69;;;11.21;71.04
65880;BME280;52661;51.364;6.054;2023-04-27T10:17:32;101626.66;;;11.35;73.62
65880;BME280;52661;51.364;6.054;2023-04-27T10:22:47;101626.03;;;11.49;72.10
65880;BME280;52661;51.364;6.054;2023-04-27T10:25:21;101620.69;;;11.60;74.03
65880;BME280;52661;51.364;6.054;2023-04-27T10:27:58;101620.38;;;11.68;72.09
65880;BME280;52661;51.364;6.054;2023-04-27T10:30:26;101611.00;;;11.62;71.87
65880;BME280;52661;51.364;6.054;2023-04-27T10:32:57;101613.63;;;11.89;81.20
65880;BME280;52661;51.364;6.054;2023-04-27T10:35:37;101610.03;;;11.81;75.35
65880;BME280;52661;51.364;6.054;2023-04-27T10:38:10;101608.88;;;11.78;76.79
65880;BME280;52661;51.364;6.054;2023-04-27T10:40:39;101605.13;;;11.94;77.43
65880;BME280;52661;51.364;6.054;2023-04-27T10:43:17;101621.81;;;11.92;74.76
65880;BME280;52661;51.364;6.054;2023-04-27T10:45:44;101620.94;;;11.81;72.35
65880;BME280;52661;51.364;6.054;2023-04-27T10:48:13;101627.13;;;11.78;67.71
65880;BME280;52661;51.364;6.054;2023-04-27T10:50:40;101614.13;;;11.64;66.59
65880;BME280;52661;51.364;6.054;2023-04-27T10:53:06;101625.03;;;11.64;68.52
65880;BME280;52661;51.364;6.054;2023-04-27T10:55:32;101620.16;;;11.84;74.00
65880;BME280;52661;51.364;6.054;2023-04-27T10:57:58;101620.34;;;12.05;77.69
65880;BME280;52661;51.364;6.054;2023-04-27T11:00:27;101618.00;;;12.00;69.67
65880;BME280;52661;51.364;6.054;2023-04-27T11:02:54;101611.75;;;11.96;71.54
65880;BME280;52661;51.364;6.054;2023-04-27T11:05:25;101608.22;;;11.96;64.45
65880;BME280;52661;51.364;6.054;2023-04-27T11:08:07;101606.03;;;12.12;69.63
65880;BME280;52661;51.364;6.054;2023-04-27T11:10:34;101612.66;;;12.14;69.67
65880;BME280;52661;51.364;6.054;2023-04-27T11:13:07;101604.69;;;12.39;69.21
65880;BME280;52661;51.364;6.054;2023-04-27T11:15:56;101601.16;;;12.35;67.24
65880;BME280;52661;51.364;6.054;2023-04-27T11:18:25;101597.31;;;12.40;71.03
65880;BME280;52661;51.364;6.054;2023-04-27T11:20:52;101595.09;;;12.63;69.51
65880;BME280;52661;51.364;6.054;2023-04-27T11:23:26;101586.91;;;12.63;69.33
65880;BME280;52661;51.364;6.054;2023-04-27T11:25:53;101581.91;;;12.65;65.81
65880;BME280;52661;51.364;6.054;2023-04-27T11:28:19;101577.25;;;12.69;64.78
65880;BME280;52661;51.364;6.054;2023-04-27T11:30:45;101583.16;;;12.85;65.48
65880;BME280;52661;51.364;6.054;2023-04-27T11:33:11;101580.34;;;12.71;64.64
65880;BME280;52661;51.364;6.054;2023-04-27T11:35:37;101580.38;;;12.74;66.14
65880;BME280;52661;51.364;6.054;2023-04-27T11:38:03;101574.53;;;12.72;65.36
65880;BME280;52661;51.364;6.054;2023-04-27T11:40:29;101574.19;;;12.81;65.79
65880;BME280;52661;51.364;6.054;2023-04-27T11:42:58;101569.16;;;12.83;65.37
65880;BME280;52661;51.364;6.054;2023-04-27T11:45:25;101575.81;;;13.03;68.96
65880;BME280;52661;51.364;6.054;2023-04-27T11:47:57;101577.09;;;13.13;68.82
65880;BME280;52661;51.364;6.054;2023-04-27T11:50:23;101572.47;;;13.31;70.32
65880;BME280;52661;51.364;6.054;2023-04-27T11:52:49;101562.69;;;13.23;65.70
65880;BME280;52661;51.364;6.054;2023-04-27T11:55:19;101565.03;;;13.35;67.53
65880;BME280;52661;51.364;6.054;2023-04-27T11:57:44;101562.66;;;13.12;61.57
65880;BME280;52661;51.364;6.054;2023-04-27T12:00:10;101555.72;;;13.40;69.80
65880;BME280;52661;51.364;6.054;2023-04-27T12:02:36;101553.00;;;13.43;63.69
65880;BME280;52661;51.364;6.054;2023-04-27T12:05:02;101557.25;;;13.30;59.51
65880;BME280;52661;51.364;6.054;2023-04-27T12:07:28;101552.63;;;13.59;68.77
65880;BME280;52661;51.364;6.054;2023-04-27T12:09:53;101567.44;;;13.65;59.87
65880;BME280;52661;51.364;6.054;2023-04-27T12:12:19;101561.59;;;13.63;58.29
65880;BME280;52661;51.364;6.054;2023-04-27T12:14:47;101558.88;;;13.63;59.73
65880;BME280;52661;51.364;6.054;2023-04-27T12:17:12;101553.00;;;13.71;63.63
65880;BME280;52661;51.364;6.054;2023-04-27T12:19:37;101556.94;;;13.88;65.11
65880;BME280;52661;51.364;6.054;2023-04-27T12:22:03;101555.00;;;13.89;62.24
65880;BME280;52661;51.364;6.054;2023-04-27T12:24:28;101556.53;;;13.75;58.47
65880;BME280;52661;51.364;6.054;2023-04-27T12:26:54;101558.47;;;13.82;55.72
65880;BME280;52661;51.364;6.054;2023-04-27T12:29:19;101542.88;;;13.75;52.64
65880;BME280;52661;51.364;6.054;2023-04-27T12:31:45;101535.88;;;13.99;58.89
65880;BME280;52661;51.364;6.054;2023-04-27T12:34:11;101537.41;;;14.14;55.23
65880;BME280;52661;51.364;6.054;2023-04-27T12:36:36;101548.31;;;14.32;56.43
65880;BME280;52661;51.364;6.054;2023-04-27T12:39:15;101538.56;;;14.35;57.12
65880;BME280;52661;51.364;6.054;2023-04-27T12:41:48;101535.47;;;14.08;55.30
65880;BME280;52661;51.364;6.054;2023-04-27T12:44:15;101535.84;;;14.24;58.74
65880;BME280;52661;51.364;6.054;2023-04-27T12:46:41;101543.59;;;14.32;58.10
65880;BME280;52661;51.364;6.054;2023-04-27T12:49:08;101540.88;;;14.32;59.35
65880;BME280;52661;51.364;6.054;2023-04-27T12:51:34;101536.59;;;14.46;57.34
65880;BME280;52661;51.364;6.054;2023-04-27T12:54:01;101524.13;;;14.27;53.24